Women Only 5K Road Race

back to results

Sep. 24, 2006

Women Only 5K Road Race
Flint, MI
Results provided by GAULT RACE MANAGEMENT


******************* FEMALE OVERALL WINNER ***************************
Place Oall Name Town Time Pace
===== ==== ====================== ================= ======= =====
1 1 Gloria Foley Gaines 29:54 9:38

******************* FEMALE MASTERS WINNER ***************************
Place Oall Name Town Time Pace
===== ==== ====================== ================= ======= =====
1 2 Susan Mora Fassett Fenton 30:48 9:55

FEMALE AGE GROUP: 1 - 12
Place Oall Name Town Time Pace
===== ==== ====================== ================= ======= =====
1 145 Melissa Lloyd Grand Blanc 50:37 16:18

FEMALE AGE GROUP: 13 - 15
Place Oall Name Town Time Pace
===== ==== ====================== ================= ======= =====
1 34 Leecia Barnes Flint 39:47 12:49
2 53 Stephanie Pyke Grand Blanc 41:46 13:27

FEMALE AGE GROUP: 16 - 19
Place Oall Name Town Time Pace
===== ==== ====================== ================= ======= =====

FEMALE AGE GROUP: 20 - 24
Place Oall Name Town Time Pace
===== ==== ====================== ================= ======= =====
1 94 Tiffany Lynn Sharp Gaines 46:01 14:49
2 107 Tara Hunt Swartz Creek 47:28 15:17
3 158 Lyndsey Tate Grand Blanc 51:22 16:33

FEMALE AGE GROUP: 25 - 29
Place Oall Name Town Time Pace
===== ==== ====================== ================= ======= =====
1 104 Haliman Britt Sterling Hts 47:24 15:16
2 116 Dee Price New Lothrop 48:08 15:30
3 119 Jenny Kroninger Davison 48:21 15:34
4 121 Rebekah Murray Fenton 48:29 15:37
5 149 Allery Hinds Holly 50:53 16:23
6 176 Jessica O'Neal Flint 52:58 17:03
7 197 Becky Schad Flushing 57:06 18:23

FEMALE AGE GROUP: 30 - 34
Place Oall Name Town Time Pace
===== ==== ====================== ================= ======= =====
1 20 Debbie Truba Lake Orion 38:19 12:20
2 88 Angi Baldwin Linden 45:34 14:41
3 93 Melinda Pierce Burton 46:01 14:49
4 97 Ellen Ruddock Flint 46:22 14:56
5 108 Amanda Walker Grand Blanc 47:31 15:18
6 113 Laura Umlauf Midland 48:02 15:28
7 114 Bethany Haglund Grand Blanc 48:03 15:29
8 136 Stacey Bassi Grand Blanc 49:43 16:01
9 150 Staci Krause Holly 50:54 16:24
10 180 Sally Blackwell Grand Blanc 52:59 17:04
11 199 Gretchen Pieper Flint 57:24 18:29

FEMALE AGE GROUP: 35 - 39
Place Oall Name Town Time Pace
===== ==== ====================== ================= ======= =====
1 27 Melena Harris Flushing 39:01 12:34
2 51 Mary Meyers Burton 41:40 13:25
3 56 Sheila Clifford Fenton 41:52 13:29
4 62 Tracey Vyskocil New Lothrop 42:40 13:45
5 75 Dana Williamson Grand Blanc 43:33 14:01
6 109 Janet Fras Flushing 47:31 15:18
7 133 Jill Price Grand Blanc 49:16 15:52
8 153 April Wheaton Lapeer 51:06 16:27
9 166 Deanna Smith Oxford 51:45 16:40
10 178 Vicky Lorence Flint 52:59 17:04
11 183 Shannon Henderson Flint 53:43 17:18
12 184 Gina Couturier flint 53:43 17:18
13 200 Lori Donlan Flushing 57:44 18:35
14 202 Elizabeth Lin Rochester Hills 57:56 18:40
15 203 Malin Andersson KVIDINGE 57:57 18:40
16 205 Stacey Jones Flushing 58:53 18:58

FEMALE AGE GROUP: 40 - 44
Place Oall Name Town Time Pace
===== ==== ====================== ================= ======= =====
1 8 Donna Kowalski Battle Creek 35:47 11:32
2 19 Susan Turnage Davison 38:17 12:20
3 23 Angie Templeton Grand Blanc 38:42 12:28
4 28 Mary M Rekowski Flint 39:06 12:36
5 29 Theresa Crisp Lapeer 39:24 12:41
6 38 Denisa Phelps Davison 40:10 12:56
7 65 Lori Glenn Fenton 42:48 13:47
8 70 Jennie Milne Grand Blanc 43:05 13:53
9 72 Linda Johnson-Barnes Flint 43:21 13:58
10 73 Janice Williams Mt Morris 43:21 13:58
11 85 Karie Brooks Lapeer 44:51 14:27
12 92 Michelle Vyskocil New Lothrop 45:56 14:48
13 122 Michelle Kovel Clio 48:46 15:42
14 146 Cathy Shields Grand Blanc 50:37 16:18
15 155 Sharon Lloyd Grand Blanc 51:17 16:31
16 162 Dar Lorence flint 51:24 16:33
17 174 Nancy Contreras Lapeer 52:54 17:02
18 181 Tammy Hallwood Millington 53:02 17:05
19 194 Corey Cole Flushing 54:35 17:35

FEMALE AGE GROUP: 45 - 49
Place Oall Name Town Time Pace
===== ==== ====================== ================= ======= =====
1 4 Wanda Handlin Flint 34:28 11:06
2 7 Judy Jackson Flint 35:47 11:31
3 11 Cathy McAuliffe Gaines 37:01 11:55
4 31 Gail Webb Atlas 39:37 12:46
5 33 Katie Colden Grand Blanc 39:44 12:48
6 37 Julia Mosher Davison 40:03 12:54
7 42 Carolyn McQuigg Flushing 40:34 13:04
8 43 Joni Ward Swartz Creek 40:36 13:04
9 61 Nora Hummel Metamora 42:36 13:43
10 76 Lori Hilton Davison 43:34 14:02
11 79 Geraldine Porcaro Linden 44:09 14:13
12 83 Connie O'Brien Swartz Creek 44:50 14:26
13 84 Suzanne McVey Flint 44:51 14:27
14 87 Tamara Saidoo Burton 44:57 14:29
15 103 Alfredia Wingate Flint 47:22 15:15
16 106 Janice Walker Swartz Creek 47:28 15:17
17 110 Susan Ethridge Swartz Creek 47:46 15:23
18 123 Margaret Patterson Flint 48:47 15:43
19 126 Terri Cross Davison 48:50 15:44
20 134 Denise Malone Marysville 49:16 15:52
21 137 Linda Olivia Bendall Grand Blanc 50:05 16:08
22 147 Joni Koul Clio 50:50 16:22
23 148 Vicky Wright Swartz Creek 50:51 16:23
24 154 Deb Zembo Grand Blanc 51:17 16:31
25 161 Doreen Richards monroe 51:23 16:33
26 167 Connie Holmes flushing 52:22 16:52
27 168 Judi Witte Flint 52:22 16:52
28 175 Diane McElrath Davison 52:58 17:03
29 179 Colleen Nixon Oakley 52:59 17:04
30 206 Sandy Tucker Flushing 58:54 18:58
31 208 Darla Orr Grand Blanc 1:02:55 20:16
32 213 Martha Otberg Flint 1:04:36 20:48

FEMALE AGE GROUP: 50 - 54
Place Oall Name Town Time Pace
===== ==== ====================== ================= ======= =====
1 5 Merri Ann Baker-Radcli Durand 35:22 11:24
2 6 Karen Kaloydis Flushing 35:36 11:28
3 12 Ginger Virkler Linden 37:04 11:56
4 14 Jill Bielawski Lansing 37:41 12:08
5 16 Debbie Erwin Clio 38:02 12:15
6 26 Dawn Shapiro Fenton 39:01 12:34
7 41 Sandy Lawrence Grand Blanc 40:32 13:03
8 44 Patches Guelette Kingston 40:39 13:06
9 47 Annette Pesti Clio 41:15 13:17
10 48 Trese Haynes Flint 41:17 13:18
11 49 Judith Brown Swartz Creek 41:29 13:22
12 57 Cathy Roeper Durand 41:55 13:30
13 63 Marge McLaughlin Flushing 42:41 13:45
14 66 Paula Koplen Lapeer 42:57 13:50
15 67 Paula Floyd Fenton 42:58 13:50
16 77 Janice Galloway Flint 43:40 14:04
17 78 Bonnie Nescot Empire 43:46 14:06
18 86 Karen Murphy Swartz Creek 44:52 14:27
19 89 Karren Crawford Clio 45:35 14:41
20 95 Mary Jane Bowdish Clio 46:10 14:52
21 98 Vanita Mitchell Flint 46:49 15:05
22 105 Bessie Britt Flint 47:24 15:16
23 117 Valarie Britt Flint 48:15 15:32
24 118 Martha Gillett Chesaning 48:19 15:34
25 120 Roberta Brawner Flint 48:28 15:37
26 124 Jan Hartranf Flint 48:49 15:43
27 125 Ramona Thorpe Davison 48:49 15:43
28 127 Marty Lawrence Flint 48:50 15:44
29 131 Peggy Nolde Grand Blanc 49:06 15:49
30 132 Sandra Kleven Holly 49:11 15:51
31 138 Kathy Ruggirello fenton 50:06 16:08
32 142 Jeri Mayer Davison 50:33 16:17
33 143 Dorie Barkey Flint 50:35 16:17
34 144 Rita Daniels Clio 50:35 16:18
35 156 Judy Gonyea Byron 51:19 16:32
36 157 Sharrel Caldwell Lapeer 51:19 16:32
37 163 Karen Cruse Swartz Creek 51:30 16:35
38 164 Norma Crummer Flint 51:34 16:36
39 165 Jan Flood Flint 51:34 16:37
40 172 Betty Jackson Millington 52:41 16:58
41 186 Connie Cross Flint 54:00 17:23
42 189 Marilyn Ivey-Crook Grand Blanc 54:28 17:33
43 190 Susan Phillips Mount Morris 54:29 17:33
44 201 Sharon Gottschalk Fenton 57:44 18:36
45 210 Barbara Grondin Attica 1:03:46 20:32

FEMALE AGE GROUP: 55 - 59
Place Oall Name Town Time Pace
===== ==== ====================== ================= ======= =====
1 3 Phyllis J Anders Swartz Creek 34:02 10:58
2 9 Pat Isaguirre Flint 36:30 11:45
3 10 Sondra Foley Flushing 36:45 11:50
4 17 Sarah Garrison Grand Blanc 38:11 12:18
5 18 Janet Ellis Flushing 38:11 12:18
6 24 Mary Withey Flushing 38:50 12:30
7 35 Cherry Hamrick lansing 39:48 12:49
8 36 Barbara Cheney Flint 40:00 12:53
9 39 Jacqueline Elam Flint 40:24 13:01
10 40 Gail Bramlett Auburn Hills 40:30 13:03
11 52 Patricia Dewit Grand Blanc 41:42 13:26
12 54 Pat Ranta Fenton 41:46 13:27
13 55 Jill Jirikovic Davison 41:47 13:27
14 58 Carmen Glowney Grandblanc 42:05 13:33
15 59 Roxann Banks Otisville 42:06 13:33
16 82 Lorraine Boynton Flint 44:48 14:26
17 90 Susan Dimich Flint 45:56 14:48
18 111 Nancy Harris Fenton 47:47 15:24
19 115 Christine McVannel Grand Blanc 48:04 15:29
20 128 Sandy Jordan Flushing 48:59 15:46
21 129 Gloria Vuncannon Mount Morris 48:59 15:46
22 130 Joan Lesinski Lapeer 48:59 15:47
23 135 Jane Werner North Street 49:17 15:52
24 139 Linda Robinson East China 50:18 16:12
25 159 Linda Stepulowski Otisville 51:22 16:33
26 160 Roberta Newton Flint 51:23 16:33
27 177 Donna Sumbera New Lothrop 52:59 17:04
28 185 Jo Royer Flint 53:59 17:23
29 187 Jan Van Gilder Flushing 54:00 17:23
30 188 Trudy Krueger Flint 54:25 17:32
31 195 Linda Sherwood Flint 55:04 17:44
32 198 Carol Pieper Grove City 57:23 18:29
33 211 Patricia Gordon Clio 1:04:03 20:38
34 214 Ann Peterson Swartz Creek 1:04:36 20:48

FEMALE AGE GROUP: 60 - 64
Place Oall Name Town Time Pace
===== ==== ====================== ================= ======= =====
1 15 Kendra Metcalf Columbiaville 37:45 12:10
2 21 Nancy Beaudette Flint 38:36 12:26
3 22 Roberta Sweetman Fenton 38:42 12:28
4 25 Jane Matthews Grand Blanc 38:52 12:31
5 32 Veda Balla Flint 39:42 12:47
6 68 Cheryl Charmoli Flint 43:03 13:52
7 69 Charlene Jensen Gaines 43:03 13:52
8 74 Janet R Cooper Grand Blanc 43:25 13:59
9 91 Thelma Jefferson Flint 45:56 14:48
10 96 Aggie Sheerin Fenton 46:18 14:55
11 99 Vonetta Urquhart Flint 46:50 15:05
12 100 Pat Williams Linden 47:14 15:13
13 102 Sandy Martin Corunna 47:17 15:14
14 140 Wanda Merrell Flushing 50:26 16:15
15 152 Annette Nowak Swartz Creek 50:57 16:25
16 171 Jane Harger Flint 52:38 16:57
17 182 Cindy Stevens Clio 53:12 17:08
18 191 Sharon Holbrook Mount Morris 54:29 17:33
19 192 Hellustine Allen Flint 54:33 17:34
20 207 Sally Shaffer Flushing 1:01:58 19:58
21 209 Lynn Rodda Flint 1:02:55 20:16
22 215 Jean Pickelmann Swartz Creek 1:05:28 21:05

FEMALE AGE GROUP: 65 - 69
Place Oall Name Town Time Pace
===== ==== ====================== ================= ======= =====
1 30 Jean McCue Bay City 39:36 12:45
2 45 Sue Grace Owosso 41:00 13:12
3 46 Rita Collie Swartz Creek 41:09 13:15
4 50 Sharon Rose Empie 41:35 13:24
5 64 Jean Proctor Flint 42:48 13:47
6 81 Nancy Brown Flushing 44:44 14:25
7 101 Janet Ringlein Flint 47:17 15:14
8 151 Carol Vincent Swartz Creek 50:57 16:25
9 169 Mary Shelton Flint 52:30 16:54
10 173 Annette Priest Millington 52:41 16:58
11 212 Patricia Dunnigan Swartz Creek 1:04:28 20:46

FEMALE AGE GROUP: 70 - 89
Place Oall Name Town Time Pace
===== ==== ====================== ================= ======= =====
1 13 Patricia Priest Davison 37:04 11:57
2 60 Shirley Horton Swartz Creek 42:31 13:42
3 71 Dianne J Johnson Grand Blanc 43:06 13:53
4 80 Dorothy Somers Swartz Creek 44:43 14:24
5 112 Lillian Russell Flint 47:48 15:24
6 141 Penny Beckham Flint 50:26 16:15
7 170 Mary Conley Flint 52:37 16:57
8 193 Mary Wilcox Montrose 54:34 17:34
9 196 Mae F Peek Flint 55:05 17:44
10 204 Betty Jones Burton 58:06 18:43



******************* FEMALE OVERALL WINNER ***************************
Place Oall Name Town Time Pace
===== ==== ====================== ================= ======= =====
1 1 Malissa Lauderbaugh Flint 19:13 6:12

******************** FEMALE MASTERS WINNER **************************
Place Oall Name Town Time Pace
===== ==== ====================== ================= ======= =====
1 6 Annette Robb Keewahdin 24:21 7:51

FEMALE AGE GROUP: 1 - 12
Place Oall Name Town Time Pace
===== ==== ====================== ================= ======= =====
1 2 Kaylie Milne Grand Blanc 21:49 7:02
2 34 Amanda George DAVISON 26:31 8:33
3 96 Megan Allyn Flushing 32:28 10:27
4 219 Madison Kobylik Lapeer 53:56 17:22
5 220 Lexie Crisp Lapeer 53:56 17:22

FEMALE AGE GROUP: 13 - 15
Place Oall Name Town Time Pace
===== ==== ====================== ================= ======= =====
1 181 Meredith Davis Flushing 39:37 12:46

FEMALE AGE GROUP: 16 - 19
Place Oall Name Town Time Pace
===== ==== ====================== ================= ======= =====
1 22 Lauren Warkentien Detriut 26:01 8:23
2 27 Lisa Seymour Davison 26:16 8:28
3 28 Melissa Allen Grand Blanc 26:20 8:29
4 44 Kimberlynn Princing Flint 27:30 8:52
5 163 Emily De Witt Ortonville 38:12 12:18

FEMALE AGE GROUP: 20 - 24
Place Oall Name Town Time Pace
===== ==== ====================== ================= ======= =====
1 9 Brittany Pimentel Flushing 24:49 8:00
2 30 Amanda Zuniga Ovid 26:21 8:29
3 75 Jill Stall Flint 30:26 9:48
4 85 Mary Grondin Attica 31:13 10:04
5 150 Christen Ogden Livonia 37:33 12:06
6 194 Erin Milstead Lapeer 41:18 13:18
7 211 Lindsay Hosmer Flint 44:52 14:27

FEMALE AGE GROUP: 25 - 29
Place Oall Name Town Time Pace
===== ==== ====================== ================= ======= =====
1 3 Jaime Schymick Troy 21:49 7:02
2 4 Daneille Fowler KENOCKEE 23:14 7:29
3 7 Kate Waxweiler Flushing 24:36 7:55
4 16 Jennifer Garcia Flint 25:30 8:13
5 29 Julie Clark Flint 26:20 8:29
6 37 Kristi Jirikovic Davison 26:49 8:38
7 46 Rachel Morgan Flint 27:45 8:56
8 59 Jamie Skalnican Clio 29:00 9:20
9 66 Erin Woodruff Davison 29:43 9:34
10 69 Stephanie Gondek Linden 29:50 9:37
11 70 Stacy Hayes Grand Blanc 29:54 9:38
12 78 Michele Wildman Flushing 30:53 9:57
13 83 Lori Axelson flushing 31:12 10:03
14 86 Valarie Nicklesen Flint 31:22 10:06
15 93 Andrea Bloomfield Davison 31:49 10:15
16 117 Brea Eaton Flushing 34:14 11:02
17 148 Christina Rice Manitou Beach 37:17 12:00
18 182 Shannon Kopczyk Grand Blanc 39:43 12:47
19 210 Tisha Andrews Fenton 44:06 14:12
20 213 Christine Desco Flint 44:52 14:27

FEMALE AGE GROUP: 30 - 34
Place Oall Name Town Time Pace
===== ==== ====================== ================= ======= =====
1 5 Nicole Stevens Flint 23:54 7:42
2 11 Laura Burnett Davison 25:05 8:05
3 14 Christyna Morris Flint 25:15 8:08
4 19 Tina Phillpotts Clio 25:38 8:16
5 40 Kelly Rivera Davison 26:59 8:42
6 58 Stephanie Potts Clio 28:58 9:20
7 87 Becky Harris Fenton 31:28 10:08
8 89 Annette Huston Clio 31:31 10:09
9 94 Sally Shock Flint 31:50 10:15
10 101 Mericlare Letter Flint 32:59 10:38
11 108 Stephanie Staley Flushing 33:52 10:55
12 158 April Visser Grand Blanc 37:52 12:12
13 159 Marcie Birchmeier Flint 37:53 12:12
14 167 Jenny Thompson Flushing 38:18 12:20
15 168 Jenny Lachance Orion 38:24 12:22
16 169 Amber Patterson Pleasant Ridge 38:24 12:22
17 205 Brandi Anderson Grand Blanc 42:11 13:35
18 212 Nicole Kirby Flint 44:52 14:27
19 215 Stephanie Baxter Flint 47:07 15:10

FEMALE AGE GROUP: 35 - 39
Place Oall Name Town Time Pace
===== ==== ====================== ================= ======= =====
1 13 Kristen Mignerey Burton 25:13 8:08
2 26 Lisa Zeabari Lapeer 26:15 8:28
3 33 Tamara Werth Swartz Creek 26:27 8:31
4 35 Kimberly Leverette Flushing 26:42 8:36
5 41 Kelly Fedele Southgate 27:05 8:43
6 51 Shawn Talifarro East Lansing 28:21 9:08
7 54 Agneta Buccellato Rochester Hills 28:39 9:14
8 55 Susan Miller Flushing 28:45 9:16
9 56 Weixin Yan Novi 28:50 9:17
10 63 Laura Diehl Flint 29:36 9:32
11 65 Shelli Abyad Grand Blanc 29:41 9:34
12 68 Katie Roy Flint 29:49 9:36
13 71 Karen Blandino Fenton 29:55 9:38
14 80 Penny Callard Fenton 31:08 10:02
15 81 Joelle Jordan Flint 31:10 10:03
16 84 Rita Lauer Fenton 31:13 10:03
17 88 Amy Brimmer Davison 31:29 10:09
18 97 Stacey Bolt Millington 32:30 10:28
19 98 Theresa Rosenbrook Swartz Creek 32:39 10:31
20 102 Libby Cook Flint 33:01 10:38
21 131 Karen Ostad Grand Blanc 35:11 11:20
22 144 Michelle Gorney Grand Blanc 36:35 11:47
23 151 Mary Hewitt flint 37:34 12:06
24 154 Carey King FLINT 37:49 12:11
25 165 Juli Krieger Columbiaville 38:16 12:19
26 166 Susan Card Columbiaville 38:16 12:19
27 170 Kari Hale Swartz Creek 38:34 12:25
28 175 Lisa Snelling Grand Blanc 38:51 12:31
29 190 Kathryn Manley Burton 40:28 13:02
30 191 Trisha Reeder Grand Blanc 40:44 13:07
31 214 Candis Waltz Grand Blanc 45:02 14:30

FEMALE AGE GROUP: 40 - 44
Place Oall Name Town Time Pace
===== ==== ====================== ================= ======= =====
1 8 Kathleen Koerber Commerce Twp 24:43 7:58
2 21 Nikole Steele Howell 25:48 8:19
3 25 Teri Thomas Lapeer 26:14 8:27
4 32 Cheryl Pierson Otisville 26:26 8:31
5 38 Vicki George Davison 26:51 8:39
6 39 Shari Keener Fenton 26:58 8:41
7 42 Connie Stall Manton 27:18 8:48
8 47 Shelia Reynaert Flint 27:51 8:58
9 57 Cheryll Schuessler-Hun Grand Blanc 28:54 9:19
10 60 Marilyn Shaski Montrose 29:11 9:24
11 62 Tammy Rees Burton 29:22 9:28
12 73 Jackie Fultz Holly 30:14 9:44
13 111 Lisa Brandon Fenton 34:07 10:59
14 129 Denise Rusnell Davisburg 35:00 11:16
15 136 Renee Milstead Lapeer 35:57 11:35
16 137 Karen Herriman Swartz Creek 36:09 11:39
17 141 Kimberly Herderich Metamora 36:28 11:45
18 146 Nancy Brouwer Swartz Creek 37:10 11:58
19 156 Jody Lacross Montrose 37:50 12:11
20 162 Mary Dewitt Ortonville 38:11 12:18
21 171 Kim Welch Flushing 38:35 12:26
22 186 Julie Mejeur Grand Blanc 40:08 12:56
23 192 Kathy Maupin Grand Blanc 40:52 13:10
24 197 Ann Lesniak Lake Orion 41:46 13:27
25 208 Renee Ogden Livonia 43:14 13:55
26 217 Diane Gardner Mount Morris 50:46 16:21

FEMALE AGE GROUP: 45 - 49
Place Oall Name Town Time Pace
===== ==== ====================== ================= ======= =====
1 23 Denise Knoll Swartz Creek 26:04 8:24
2 24 Karen Downs Flint 26:11 8:26
3 36 Mary Smith Clarkston 26:44 8:37
4 43 Linda Purdy Davison 27:26 8:50
5 45 Sue Imig Lapeer 27:39 8:54
6 49 Sue Seymour Davison 28:00 9:01
7 67 Amy Fedor Davisburg 29:46 9:35
8 77 Vista Harris Linden 30:38 9:52
9 95 Theresa Wall Flushing 32:27 10:27
10 99 Barbara Lockwood Grand Blanc 32:40 10:31
11 103 Ann Walker Grand Blanc 33:26 10:46
12 104 Elaine Mestrezat Linden 33:28 10:47
13 106 Debbie Mann Grand Blanc 33:50 10:54
14 109 Denise Howe Mt. Morris 33:53 10:55
15 115 Linda Canaday Flint 34:13 11:01
16 116 Pamela Kitchen Mt Morris 34:14 11:01
17 118 Barbara Arline Grand Blanc 34:15 11:02
18 128 Barbara Nitsos Linden 35:00 11:16
19 134 Dana Buxton Utica 35:53 11:34
20 145 Kimberly Fairman Grand Blanc 36:38 11:48
21 152 Jean Harkins Flint 37:48 12:11
22 155 Debra Masters Davison 37:49 12:11
23 157 Stephanie Burke Flint 37:51 12:12
24 160 Lisa Atkins BURTON 38:00 12:14
25 176 Krista Durham Flushing 39:01 12:34
26 179 Laurel Allyn Flushing 39:33 12:44
27 180 Debbie Depalma Flushing 39:37 12:46
28 206 Lena Darrough Flint 42:23 13:39
29 207 Marleen Fall Otter Lake 42:26 13:40

FEMALE AGE GROUP: 50 - 54
Place Oall Name Town Time Pace
===== ==== ====================== ================= ======= =====
1 12 Diane Morris Grand Blanc 25:13 8:07
2 15 Catherine Pierfelice Belleville 25:29 8:13
3 17 Judy Puidokas Grand Blanc 25:33 8:14
4 18 Michelle Jo Dvorak Burton 25:37 8:15
5 31 Dona De Rossett Otisville 26:23 8:30
6 50 Tamara Savage Swartz Creek 28:02 9:02
7 52 Sharon Cox Flint 28:25 9:09
8 72 Nanette Strable Rochester Hills 29:57 9:39
9 76 Valerie Kump-Dutkowski Flushing 30:32 9:50
10 82 Ellen Stewart-Miller Flushing 31:12 10:03
11 90 Roxanne McFall Fenton 31:43 10:13
12 92 Terrilynn Hiben Montrose 31:45 10:14
13 100 Elizabeth Dyhouse Flushing 32:47 10:34
14 105 Victoria Church Flint 33:29 10:47
15 107 Janet Ruggirello Fenton 33:52 10:55
16 110 Martha Kemp Fenton 34:07 10:59
17 112 Kathy Wentz Grand Blanc 34:10 11:00
18 114 Susan Degalan Flushing 34:13 11:01
19 120 Cheryl Blondin Clio 34:35 11:08
20 125 Sharon Swierpel Flint 34:54 11:15
21 140 Gloria Burns Flint 36:27 11:44
22 143 Georgia Walker Flint 36:33 11:46
23 147 Jill Sheeran Grand Blanc 37:14 12:00
24 153 Jane Odell Mount Morris 37:48 12:11
25 161 Barb Thibodeau Linden 38:01 12:15
26 173 Debra R Wilkins Clio 38:42 12:28
27 178 Charlotte Walker Flint 39:28 12:43
28 183 Susan Degalan Flushing 39:44 12:48
29 184 Hope McLincha Clio 39:47 12:49
30 185 Elizabeth Gage Grand Blanc 39:52 12:50
31 189 Clara Naylor Flint 40:28 13:02
32 198 Deb Montpas Flint 41:47 13:27
33 201 Ramona Forte Flint 41:53 13:29
34 216 Cathy Hatch Burton 50:46 16:21

FEMALE AGE GROUP: 55 - 59
Place Oall Name Town Time Pace
===== ==== ====================== ================= ======= =====
1 10 Diana Tuttle Essexville 25:00 8:03
2 20 Janeen A Dvorak Corunna 25:39 8:16
3 48 Marie Thompson Clio 27:53 8:59
4 53 Margaret Anthony Columbiaville 28:34 9:12
5 61 Jackie Sublett Flushing 29:21 9:27
6 64 Judy K Horning Davison 29:38 9:33
7 91 La Donna Nimphie Fenton 31:44 10:13
8 119 Kathy Wagner CLIO 34:31 11:07
9 121 Lynda Johnson Clio 34:35 11:08
10 123 Sharyn Schymick Troy 34:44 11:11
11 126 Carol Mitsdarfer Flushing 34:55 11:15
12 127 Martha Morin Flushing 34:57 11:15
13 130 Deborah Blair Davison 35:04 11:18
14 133 Lynne McLean Flint 35:48 11:32
15 138 Patricia Smith Fenton 36:21 11:43
16 139 Joretta Roy Flushing 36:26 11:44
17 142 Pamela Rudolph Swartz Creek 36:32 11:46
18 172 Marsha McLean Gaines 38:36 12:26
19 174 Judy Lemon Galesburg 38:47 12:30
20 195 Mary Wheelock Flint 41:18 13:18
21 200 Shirin Manzari flint 41:52 13:29
22 202 Kathy Haggart Fenton 41:53 13:29

FEMALE AGE GROUP: 60 - 64
Place Oall Name Town Time Pace
===== ==== ====================== ================= ======= =====
1 74 Shirley Larsen gd. blanc 30:25 9:48
2 79 Martha L. Austin Swartz Creek 30:59 9:59
3 113 Linda L Nelson Ortonville 34:12 11:01
4 122 Gail Weeks Davison 34:36 11:09
5 124 Joan Darby Flint 34:45 11:12
6 132 Maureen Schisler Gaines 35:27 11:25
7 149 Loretta C Ellwood Davison 37:21 12:02
8 196 Kitty Vandenbrulle Flushing 41:34 13:23
9 199 Betty Thorson Flushing 41:51 13:29
10 203 Mary Moody SALT LAKE CITY 41:54 13:30
11 204 Mary Lynn Hollenbeck Byron 41:55 13:30
12 209 Carolyn Shumpert Flint 43:33 14:02
13 218 Mary Cole Flushing 51:19 16:32

FEMALE AGE GROUP: 65 - 69
Place Oall Name Town Time Pace
===== ==== ====================== ================= ======= =====
1 135 Rita Marks Fenton 35:55 11:34
2 164 Deanna Dee Umber Fenton 38:15 12:19
3 177 Patricia L Fizell Flint 39:13 12:38
4 187 Madonna Aubrey Flushing 40:22 13:00

FEMALE AGE GROUP: 70 - 89
Place Oall Name Town Time Pace
===== ==== ====================== ================= ======= =====
1 188 Glenadine Culver Clio 40:27 13:02
2 193 Marie Miller Flushing 41:13 13:16

Flint, MI
Results provided by GAULT RACE MANAGEMENT